Jacksonville, Missouri
Current Conditions -  °F | °C
As of 5:55 AM on Monday 24 Nov 2014 (Local Time) from KIRK Reporting Station
Overcast Overcast  
Wind Chill: -6°   Ceiling: 2400
Heat Index:   Visibility: 10mi
Dew Point: -3°   Wind: 18mph
Humidity: 82%   Direction: 290°WNW
Pressure: 29.45"   Gusts: 26mph
Location:  39.59°N, 92.47°W
Report Text: KIRK 241155Z AUTO 29016G23KT 10SM OVC024 00/M03 A2945 RMK AO2 PK WND 29027/1115 SLP981 60013 70095 T00001028 10017 20000 51022
Loading
Personal Weather Stations






























Interactive Weather Map New forecast layout! Learn more

10-Day Weather Forecast

Advertisements
Track Severe Weather on mobile